createdAt,value
2023-02-02T00:01:36.754Z,0.60
2023-02-02T00:04:06.638Z,0.60
2023-02-02T00:06:36.526Z,0.57
2023-02-02T00:09:06.583Z,0.63
2023-02-02T00:11:36.088Z,0.40
2023-02-02T00:14:08.470Z,0.50
2023-02-02T00:16:39.522Z,0.60
2023-02-02T00:19:10.125Z,0.70
2023-02-02T00:21:39.668Z,0.57
2023-02-02T00:24:09.744Z,0.53
2023-02-02T00:26:39.951Z,0.50
2023-02-02T00:29:16.264Z,0.40
2023-02-02T00:31:45.973Z,0.60
2023-02-02T00:34:16.210Z,0.40
2023-02-02T00:36:46.463Z,0.57
2023-02-02T00:39:18.592Z,0.53
2023-02-02T00:41:48.341Z,0.60
2023-02-02T00:44:32.828Z,0.43
2023-02-02T00:47:02.803Z,0.50
2023-02-02T00:49:32.355Z,0.53
2023-02-02T00:52:01.988Z,0.53
2023-02-02T00:54:31.512Z,0.80
2023-02-02T00:57:01.038Z,0.43
2023-02-02T00:59:33.136Z,0.70
2023-02-02T01:02:02.707Z,0.70
2023-02-02T01:04:32.220Z,0.30
2023-02-02T01:07:01.854Z,0.60
2023-02-02T01:09:32.198Z,0.80
2023-02-02T01:12:01.692Z,0.70
2023-02-02T01:14:33.841Z,0.70
2023-02-02T01:17:03.405Z,0.90
2023-02-02T01:19:32.839Z,0.43
2023-02-02T01:22:03.497Z,0.80
2023-02-02T01:24:33.312Z,0.83
2023-02-02T01:27:02.849Z,1.03
2023-02-02T01:29:36.516Z,0.93
2023-02-02T01:32:06.490Z,0.77
2023-02-02T01:34:36.158Z,0.60
2023-02-02T01:37:05.967Z,0.67
2023-02-02T01:39:35.425Z,0.63
2023-02-02T01:42:05.554Z,0.47
2023-02-02T01:44:50.059Z,0.83
2023-02-02T01:47:22.844Z,1.00
2023-02-02T01:49:52.572Z,0.93
2023-02-02T01:52:23.656Z,0.67
2023-02-02T01:54:54.687Z,0.50
2023-02-02T01:57:27.664Z,0.50
2023-02-02T01:59:58.565Z,0.30
2023-02-02T02:02:31.788Z,0.43
2023-02-02T02:05:02.729Z,0.60
2023-02-02T02:07:32.362Z,0.90
2023-02-02T02:10:01.924Z,0.40
2023-02-02T02:12:32.256Z,0.60
2023-02-02T02:15:14.243Z,0.30
2023-02-02T02:17:51.864Z,0.50
2023-02-02T02:20:54.668Z,0.50
2023-02-02T02:23:57.530Z,0.80
2023-02-02T02:26:38.036Z,0.90
2023-02-02T02:29:17.881Z,0.50
2023-02-02T02:32:03.271Z,0.40
2023-02-02T02:34:41.009Z,0.50
2023-02-02T02:37:13.487Z,0.33
2023-02-02T02:39:47.316Z,0.20
2023-02-02T02:42:19.482Z,0.40
2023-02-02T02:44:50.019Z,0.40
2023-02-02T02:47:20.111Z,0.50
2023-02-02T02:49:52.707Z,0.47
2023-02-02T02:52:22.309Z,0.50
2023-02-02T02:54:52.820Z,0.30
2023-02-02T02:57:35.291Z,0.40
2023-02-02T03:00:11.720Z,0.40
2023-02-02T03:02:45.264Z,0.40
2023-02-02T03:05:24.573Z,0.33
2023-02-02T03:07:58.256Z,0.33
2023-02-02T03:10:30.432Z,0.33
2023-02-02T03:13:00.458Z,0.40
2023-02-02T03:15:29.908Z,0.57
2023-02-02T03:17:59.436Z,0.40
2023-02-02T03:20:31.654Z,0.30
2023-02-02T03:23:01.317Z,0.30
2023-02-02T03:25:31.018Z,0.30
2023-02-02T03:28:01.152Z,0.33
2023-02-02T03:30:30.867Z,0.30
2023-02-02T03:33:00.429Z,0.40
2023-02-02T03:35:32.670Z,0.40
2023-02-02T03:38:02.272Z,0.30
2023-02-02T03:40:31.751Z,0.30
2023-02-02T03:43:01.458Z,0.30
2023-02-02T03:45:32.241Z,0.30
2023-02-02T03:48:01.733Z,0.40
2023-02-02T03:50:33.793Z,0.40
2023-02-02T03:53:03.441Z,0.40
2023-02-02T03:55:32.938Z,0.60
2023-02-02T03:58:02.469Z,0.40
2023-02-02T04:00:31.911Z,0.60
2023-02-02T04:03:01.510Z,1.40
2023-02-02T04:05:33.675Z,1.40
2023-02-02T04:08:03.161Z,1.27
2023-02-02T04:10:32.674Z,1.03
2023-02-02T04:13:02.184Z,1.30
2023-02-02T04:15:31.665Z,0.70
2023-02-02T04:18:01.145Z,1.10
2023-02-02T04:20:33.250Z,1.10
2023-02-02T04:23:02.824Z,1.53
2023-02-02T04:25:32.312Z,1.00
2023-02-02T04:28:01.882Z,1.30
2023-02-02T04:30:31.475Z,1.73
2023-02-02T04:33:01.064Z,1.43
2023-02-02T04:35:33.298Z,1.47
2023-02-02T04:38:02.951Z,1.57
2023-02-02T04:40:32.423Z,1.20
2023-02-02T04:43:01.982Z,1.20
2023-02-02T04:45:31.495Z,1.00
2023-02-02T04:48:01.093Z,0.87
2023-02-02T04:50:33.285Z,1.10
2023-02-02T04:53:02.898Z,1.10
2023-02-02T04:55:32.453Z,1.00
2023-02-02T04:58:01.966Z,1.00
2023-02-02T05:00:31.598Z,0.90
2023-02-02T05:03:01.191Z,0.70
2023-02-02T05:05:33.312Z,0.93
2023-02-02T05:08:02.866Z,1.00
2023-02-02T05:10:32.402Z,0.80
2023-02-02T05:13:01.928Z,1.17
2023-02-02T05:15:31.545Z,0.87
2023-02-02T05:18:01.088Z,1.13
2023-02-02T05:20:33.176Z,0.90
2023-02-02T05:23:02.687Z,1.00
2023-02-02T05:25:32.199Z,0.87
2023-02-02T05:28:01.932Z,1.20
2023-02-02T05:30:33.453Z,0.80
2023-02-02T05:33:03.316Z,1.20
2023-02-02T05:35:35.467Z,1.00
2023-02-02T05:38:05.033Z,0.93
2023-02-02T05:40:34.537Z,1.00
2023-02-02T05:43:04.132Z,1.00
2023-02-02T05:45:33.755Z,1.10
2023-02-02T05:48:03.321Z,1.60
2023-02-02T05:50:35.896Z,1.70
2023-02-02T05:53:06.933Z,1.63
2023-02-02T05:55:36.474Z,1.80
2023-02-02T05:58:05.990Z,1.80
2023-02-02T06:00:35.592Z,2.10
2023-02-02T06:03:05.186Z,1.90
2023-02-02T06:05:37.406Z,2.17
2023-02-02T06:08:07.082Z,2.87
2023-02-02T06:10:36.580Z,2.03
2023-02-02T06:13:06.112Z,2.30
2023-02-02T06:15:35.892Z,1.47
2023-02-02T06:18:06.696Z,2.10
2023-02-02T06:20:39.014Z,2.00
2023-02-02T06:23:08.892Z,2.07
2023-02-02T06:25:38.416Z,2.00
2023-02-02T06:28:08.027Z,2.30
2023-02-02T06:30:37.485Z,2.27
2023-02-02T06:33:07.437Z,2.10
2023-02-02T06:35:39.528Z,1.73
2023-02-02T06:38:09.073Z,2.07
2023-02-02T06:40:38.541Z,1.67
2023-02-02T06:43:09.135Z,1.87
2023-02-02T06:45:40.343Z,2.00
2023-02-02T06:48:11.116Z,1.70
2023-02-02T06:50:43.340Z,2.07
2023-02-02T06:53:13.039Z,1.93
2023-02-02T06:55:42.506Z,2.20
2023-02-02T06:58:12.021Z,2.47
2023-02-02T07:00:42.170Z,2.00
2023-02-02T07:03:11.617Z,2.40
2023-02-02T07:05:43.756Z,2.63
2023-02-02T07:08:13.271Z,2.17
2023-02-02T07:11:09.217Z,1.90
2023-02-02T07:13:33.826Z,2.20
2023-02-02T07:16:03.377Z,2.33
2023-02-02T07:18:33.231Z,2.00
2023-02-02T07:21:05.461Z,2.30
2023-02-02T07:23:35.415Z,2.50
2023-02-02T07:26:05.704Z,2.07
2023-02-02T07:28:35.225Z,2.70
2023-02-02T07:31:14.817Z,2.43
2023-02-02T07:33:44.675Z,2.00
2023-02-02T07:36:18.219Z,1.93
2023-02-02T07:38:48.488Z,2.00
2023-02-02T07:41:18.445Z,2.07
2023-02-02T07:43:49.622Z,1.90
2023-02-02T07:46:19.733Z,1.87
2023-02-02T07:48:49.440Z,1.67
2023-02-02T07:51:21.524Z,1.33
2023-02-02T07:53:51.784Z,1.17
2023-02-02T07:56:22.728Z,1.37
2023-02-02T07:58:54.069Z,1.20
2023-02-02T08:01:26.232Z,1.50
2023-02-02T08:03:56.820Z,1.50
2023-02-02T08:06:32.241Z,1.77
2023-02-02T08:09:02.175Z,1.73
2023-02-02T08:11:32.233Z,1.53
2023-02-02T08:14:02.938Z,2.10
2023-02-02T08:16:33.159Z,2.30
2023-02-02T08:19:02.674Z,2.60
2023-02-02T08:21:35.216Z,3.83
2023-02-02T08:24:05.370Z,3.77
2023-02-02T08:26:35.051Z,4.87
2023-02-02T08:29:05.250Z,5.17
2023-02-02T08:31:36.336Z,5.40
2023-02-02T08:34:06.428Z,4.27
2023-02-02T08:36:38.583Z,3.80
2023-02-02T08:39:09.179Z,2.40
2023-02-02T08:41:39.283Z,2.17
2023-02-02T08:44:11.290Z,2.40
2023-02-02T08:46:41.372Z,2.17
2023-02-02T08:49:13.348Z,2.50
2023-02-02T08:51:45.508Z,1.80
2023-02-02T08:54:15.615Z,1.97
2023-02-02T08:56:45.073Z,2.20
2023-02-02T08:59:14.534Z,2.00
2023-02-02T09:01:44.441Z,2.00
2023-02-02T09:04:16.625Z,1.90
2023-02-02T09:06:48.817Z,2.27
2023-02-02T09:09:18.976Z,2.10
2023-02-02T09:11:48.480Z,2.00
2023-02-02T09:14:18.044Z,2.20
2023-02-02T09:16:47.567Z,2.00
2023-02-02T09:19:17.336Z,1.57
2023-02-02T09:21:49.557Z,2.00
2023-02-02T09:24:19.690Z,1.77
2023-02-02T09:26:49.174Z,1.93
2023-02-02T09:29:19.368Z,1.50
2023-02-02T09:31:48.921Z,1.80
2023-02-02T09:34:18.834Z,2.00
2023-02-02T09:36:51.917Z,2.60
2023-02-02T09:39:21.432Z,1.70
2023-02-02T09:41:57.696Z,2.23
2023-02-02T09:44:33.877Z,2.30
2023-02-02T09:47:07.951Z,1.93
2023-02-02T09:49:40.956Z,2.10
2023-02-02T09:52:16.183Z,2.67
2023-02-02T09:54:47.637Z,5.40
2023-02-02T09:57:20.797Z,7.60
2023-02-02T09:59:52.371Z,4.10
2023-02-02T10:02:25.405Z,2.93
2023-02-02T10:04:58.111Z,2.50
2023-02-02T10:07:34.345Z,2.37
2023-02-02T10:10:07.396Z,2.30
2023-02-02T10:12:47.230Z,2.50
2023-02-02T10:15:20.507Z,2.40
2023-02-02T10:17:53.966Z,2.20
2023-02-02T10:20:34.732Z,2.43
2023-02-02T10:23:14.408Z,2.23
2023-02-02T10:25:49.190Z,1.90
2023-02-02T10:28:20.912Z,1.83
2023-02-02T10:30:56.879Z,2.10
2023-02-02T10:33:32.713Z,2.17
2023-02-02T10:36:06.797Z,2.13
2023-02-02T10:38:41.694Z,1.73
2023-02-02T10:41:17.418Z,2.17
2023-02-02T10:43:56.490Z,2.07
2023-02-02T10:46:27.834Z,2.27
2023-02-02T10:49:03.350Z,1.60
2023-02-02T10:51:32.920Z,2.20
2023-02-02T10:54:06.357Z,2.37
2023-02-02T10:56:39.136Z,2.97
2023-02-02T10:59:09.683Z,2.10
2023-02-02T11:01:39.241Z,2.20
2023-02-02T11:04:21.505Z,2.67
2023-02-02T11:06:53.722Z,2.10
2023-02-02T11:09:28.588Z,2.40
2023-02-02T11:12:00.225Z,2.10
2023-02-02T11:14:39.282Z,2.77
2023-02-02T11:17:20.969Z,2.77
2023-02-02T11:19:50.545Z,2.93
2023-02-02T11:22:28.278Z,3.10
2023-02-02T11:25:01.292Z,3.57
2023-02-02T11:27:32.286Z,3.93
2023-02-02T11:30:03.059Z,3.40
2023-02-02T11:32:33.761Z,3.20
2023-02-02T11:35:21.110Z,4.07
2023-02-02T11:38:02.316Z,3.63
2023-02-02T11:40:36.378Z,3.27
2023-02-02T11:43:07.543Z,15.23
2023-02-02T11:45:39.162Z,7.57
2023-02-02T11:48:10.479Z,5.93
2023-02-02T11:50:40.123Z,4.60
2023-02-02T11:53:09.684Z,4.47
2023-02-02T11:55:45.974Z,5.23
2023-02-02T11:58:25.004Z,4.80
2023-02-02T12:00:56.903Z,4.20
2023-02-02T12:03:27.737Z,4.07
2023-02-02T12:05:57.596Z,5.23
2023-02-02T12:08:27.316Z,5.40
2023-02-02T12:11:04.121Z,5.40
2023-02-02T12:13:40.786Z,4.82
2023-02-02T12:16:16.949Z,3.28
2023-02-02T12:18:52.827Z,2.80
2023-02-02T12:21:25.657Z,2.93
2023-02-02T12:24:00.952Z,3.43
2023-02-02T12:26:34.603Z,4.18
2023-02-02T12:29:16.810Z,3.37
2023-02-02T12:31:52.235Z,3.90
2023-02-02T12:34:26.583Z,3.72
2023-02-02T12:37:03.377Z,4.37
2023-02-02T12:39:37.105Z,4.17
2023-02-02T12:42:21.654Z,4.37
2023-02-02T12:45:01.558Z,3.97
2023-02-02T12:47:34.535Z,4.40
2023-02-02T12:50:18.679Z,4.80
2023-02-02T12:52:58.516Z,3.73
2023-02-02T12:55:31.669Z,4.10
2023-02-02T12:58:07.723Z,4.30
2023-02-02T13:00:52.751Z,4.70
2023-02-02T13:03:40.212Z,4.07
2023-02-02T13:06:18.559Z,3.97
2023-02-02T13:08:52.769Z,4.17
2023-02-02T13:11:34.118Z,4.47
2023-02-02T13:14:09.425Z,4.75
2023-02-02T13:16:44.409Z,4.45
2023-02-02T13:19:16.656Z,4.73
2023-02-02T13:21:47.204Z,4.82
2023-02-02T13:24:18.425Z,4.90
2023-02-02T13:26:48.722Z,5.60
2023-02-02T13:29:22.403Z,5.35
2023-02-02T13:31:59.434Z,3.28
2023-02-02T13:34:31.933Z,2.33
2023-02-02T13:37:04.965Z,2.13
2023-02-02T13:39:36.409Z,4.43
2023-02-02T13:42:16.920Z,3.17
2023-02-02T13:44:49.608Z,2.30
2023-02-02T13:47:25.317Z,2.00
2023-02-02T13:49:56.586Z,2.00
2023-02-02T13:52:38.344Z,2.00
2023-02-02T13:55:19.124Z,1.90
2023-02-02T13:58:04.627Z,1.80
2023-02-02T14:00:36.817Z,2.10
2023-02-02T14:03:23.465Z,2.58
2023-02-02T14:06:06.002Z,1.80
2023-02-02T14:08:35.857Z,1.88
2023-02-02T14:11:06.720Z,2.38
2023-02-02T14:13:52.883Z,2.20
2023-02-02T14:16:24.567Z,1.95
2023-02-02T14:18:57.666Z,2.30
2023-02-02T14:21:45.046Z,2.13
2023-02-02T14:24:29.480Z,2.13
2023-02-02T14:27:00.336Z,2.10
2023-02-02T14:29:40.703Z,1.80
2023-02-02T14:32:25.049Z,1.70
2023-02-02T14:34:58.211Z,1.95
2023-02-02T14:37:41.476Z,1.60
2023-02-02T14:40:26.277Z,1.50
2023-02-02T14:43:14.366Z,1.40
2023-02-02T14:45:44.179Z,2.00
2023-02-02T14:48:18.808Z,2.13
2023-02-02T14:50:53.148Z,1.47
2023-02-02T14:53:28.637Z,1.70
2023-02-02T14:56:03.514Z,2.20
2023-02-02T14:58:34.971Z,1.97
2023-02-02T15:01:10.505Z,1.40
2023-02-02T15:03:48.866Z,2.30
2023-02-02T15:06:30.817Z,2.77
2023-02-02T15:09:15.324Z,2.53
2023-02-02T15:12:02.157Z,2.40
2023-02-02T15:14:36.176Z,2.70
2023-02-02T15:17:07.595Z,3.03
2023-02-02T15:19:40.428Z,2.13
2023-02-02T15:22:18.595Z,2.70
2023-02-02T15:24:48.599Z,2.43
2023-02-02T15:27:19.091Z,4.40
2023-02-02T15:29:49.806Z,6.53
2023-02-02T15:32:20.575Z,5.97
2023-02-02T15:34:52.079Z,4.40
2023-02-02T15:37:26.336Z,4.13
2023-02-02T15:39:57.341Z,3.63
2023-02-02T15:42:43.215Z,3.57
2023-02-02T15:45:27.771Z,3.65
2023-02-02T15:47:57.594Z,4.43
2023-02-02T15:50:27.569Z,5.77
2023-02-02T15:52:59.831Z,6.63
2023-02-02T15:55:33.111Z,6.80
2023-02-02T15:58:02.658Z,7.73
2023-02-02T16:00:35.061Z,8.67
2023-02-02T16:03:07.146Z,6.80
2023-02-02T16:05:47.640Z,5.13
2023-02-02T16:08:21.692Z,5.00
2023-02-02T16:10:51.893Z,4.13
2023-02-02T16:13:26.780Z,4.47
2023-02-02T16:16:00.488Z,4.90
2023-02-02T16:18:30.302Z,4.07
2023-02-02T16:21:01.638Z,4.67
2023-02-02T16:23:36.388Z,4.07
2023-02-02T16:26:07.871Z,3.87
2023-02-02T16:28:37.639Z,3.93
2023-02-02T16:31:07.472Z,4.00
2023-02-02T16:33:40.635Z,3.73
2023-02-02T16:36:25.136Z,3.40
2023-02-02T16:38:59.964Z,4.93
2023-02-02T16:41:35.218Z,4.57
2023-02-02T16:44:19.856Z,4.67
2023-02-02T16:46:51.108Z,5.13
2023-02-02T16:49:21.803Z,5.37
2023-02-02T16:51:52.387Z,4.97
2023-02-02T16:54:25.000Z,5.33
2023-02-02T16:57:01.951Z,4.67
2023-02-02T16:59:33.643Z,4.47
2023-02-02T17:02:05.414Z,5.03
2023-02-02T17:04:36.854Z,5.13
2023-02-02T17:07:11.756Z,4.97
2023-02-02T17:09:44.460Z,4.67
2023-02-02T17:12:34.594Z,4.50
2023-02-02T17:15:06.141Z,3.30
2023-02-02T17:17:35.797Z,3.83
2023-02-02T17:20:07.275Z,3.87
2023-02-02T17:22:40.045Z,3.43
2023-02-02T17:25:17.127Z,3.30
2023-02-02T17:27:47.394Z,5.93
2023-02-02T17:30:17.874Z,6.07
2023-02-02T17:32:47.395Z,5.77
2023-02-02T17:35:17.425Z,6.00
2023-02-02T17:37:47.248Z,7.00
2023-02-02T17:40:20.259Z,7.03
2023-02-02T17:42:51.530Z,7.10
2023-02-02T17:45:23.148Z,9.30
2023-02-02T17:47:53.215Z,8.80
2023-02-02T17:50:23.574Z,9.27
2023-02-02T17:52:53.194Z,9.87
2023-02-02T17:55:26.326Z,9.47
2023-02-02T17:57:56.594Z,8.47
2023-02-02T18:00:30.972Z,7.67
2023-02-02T18:03:03.158Z,8.80
2023-02-02T18:05:32.685Z,7.97
2023-02-02T18:08:02.207Z,8.77
2023-02-02T18:10:36.189Z,8.60
2023-02-02T18:13:05.767Z,8.57
2023-02-02T18:15:35.343Z,7.33
2023-02-02T18:18:05.376Z,6.83
2023-02-02T18:20:36.344Z,6.00
2023-02-02T18:23:05.884Z,6.20
2023-02-02T18:25:37.998Z,5.97
2023-02-02T18:28:07.820Z,6.00
2023-02-02T18:30:37.364Z,7.00
2023-02-02T18:33:06.888Z,6.73
2023-02-02T18:35:36.355Z,6.73
2023-02-02T18:38:05.976Z,7.00
2023-02-02T18:40:38.136Z,7.97
2023-02-02T18:43:07.717Z,8.60
2023-02-02T18:45:37.199Z,7.17
2023-02-02T18:48:06.938Z,7.23
2023-02-02T18:50:36.465Z,7.20
2023-02-02T18:53:06.000Z,6.60
2023-02-02T18:55:39.831Z,9.57
2023-02-02T18:58:10.784Z,10.60
2023-02-02T19:00:40.334Z,9.40
2023-02-02T19:03:10.009Z,8.07
2023-02-02T19:05:51.919Z,8.37
2023-02-02T19:08:22.115Z,7.27
2023-02-02T19:10:58.861Z,7.03
2023-02-02T19:13:29.973Z,8.50
2023-02-02T19:16:01.363Z,7.00
2023-02-02T19:18:34.182Z,7.20
2023-02-02T19:21:04.224Z,7.57
2023-02-02T19:23:34.372Z,8.23
2023-02-02T19:26:17.043Z,8.57
2023-02-02T19:28:46.638Z,8.40
2023-02-02T19:31:17.116Z,7.47
2023-02-02T19:33:47.900Z,6.93
2023-02-02T19:36:18.367Z,6.83
2023-02-02T19:38:48.378Z,6.13
2023-02-02T19:41:22.493Z,6.60
2023-02-02T19:43:53.648Z,6.97
2023-02-02T19:46:24.156Z,6.57
2023-02-02T19:48:54.833Z,6.37
2023-02-02T19:51:33.925Z,6.67
2023-02-02T19:54:03.741Z,6.23
2023-02-02T19:56:38.136Z,6.47
2023-02-02T19:59:07.852Z,6.20
2023-02-02T20:01:37.787Z,6.40
2023-02-02T20:04:14.044Z,6.43
2023-02-02T20:06:58.092Z,6.23
2023-02-02T20:09:29.337Z,7.10
2023-02-02T20:12:01.514Z,6.70
2023-02-02T20:14:33.195Z,7.10
2023-02-02T20:17:05.310Z,6.57
2023-02-02T20:19:37.010Z,6.80
2023-02-02T20:22:06.615Z,6.88
2023-02-02T20:24:38.552Z,6.77
2023-02-02T20:27:16.254Z,6.63
2023-02-02T20:29:46.724Z,6.03
2023-02-02T20:32:21.755Z,6.37
2023-02-02T20:34:52.203Z,5.03
2023-02-02T20:37:25.788Z,5.17
2023-02-02T20:39:57.427Z,4.90
2023-02-02T20:42:29.873Z,4.43
2023-02-02T20:44:59.513Z,4.53
2023-02-02T20:47:30.108Z,4.90
2023-02-02T20:50:01.338Z,5.40
2023-02-02T20:52:31.178Z,5.13
2023-02-02T20:55:00.677Z,4.80
2023-02-02T20:57:32.982Z,4.57
2023-02-02T21:00:02.551Z,4.17
2023-02-02T21:02:32.085Z,3.37
2023-02-02T21:05:01.606Z,3.63
2023-02-02T21:07:31.067Z,3.30
2023-02-02T21:10:00.565Z,3.20
2023-02-02T21:12:32.661Z,3.40
2023-02-02T21:15:04.003Z,3.53
2023-02-02T21:17:33.637Z,3.40
2023-02-02T21:20:03.142Z,2.83
2023-02-02T21:22:32.745Z,3.37
2023-02-02T21:25:02.305Z,3.10
2023-02-02T21:27:34.680Z,3.22
2023-02-02T21:30:04.264Z,3.30
2023-02-02T21:32:33.696Z,3.55
2023-02-02T21:35:03.296Z,3.50
2023-02-02T21:37:32.845Z,3.70
2023-02-02T21:40:02.378Z,3.75
2023-02-02T21:42:36.302Z,3.73
2023-02-02T21:45:26.876Z,4.30
2023-02-02T21:47:57.189Z,3.93
2023-02-02T21:50:29.419Z,4.50
2023-02-02T21:53:10.577Z,4.10
2023-02-02T21:55:40.891Z,4.47
2023-02-02T21:58:20.084Z,7.50
2023-02-02T22:00:49.690Z,5.32
2023-02-02T22:03:33.801Z,5.97
2023-02-02T22:06:11.323Z,5.57
2023-02-02T22:08:40.945Z,5.22
2023-02-02T22:11:15.480Z,5.38
2023-02-02T22:13:47.640Z,5.50
2023-02-02T22:16:20.329Z,5.78
2023-02-02T22:18:50.115Z,6.18
2023-02-02T22:21:21.114Z,6.50
2023-02-02T22:23:50.866Z,7.13
2023-02-02T22:26:34.160Z,8.63
2023-02-02T22:29:10.460Z,7.73
2023-02-02T22:31:39.961Z,8.33
2023-02-02T22:34:09.555Z,9.00
2023-02-02T22:36:39.069Z,7.50
2023-02-02T22:39:08.571Z,7.20
2023-02-02T22:41:38.127Z,8.60
2023-02-02T22:44:10.371Z,7.93
2023-02-02T22:46:39.928Z,5.57
2023-02-02T22:49:09.381Z,7.00
2023-02-02T22:51:38.927Z,5.30
2023-02-02T22:54:08.507Z,4.93
2023-02-02T22:56:38.082Z,5.10
2023-02-02T22:59:10.200Z,5.10
2023-02-02T23:01:39.747Z,4.07
2023-02-02T23:04:09.231Z,4.03
2023-02-02T23:06:38.793Z,3.93
2023-02-02T23:09:08.297Z,3.67
2023-02-02T23:11:37.830Z,3.40
2023-02-02T23:14:09.977Z,3.77
2023-02-02T23:16:39.499Z,3.05
2023-02-02T23:19:09.009Z,3.35
2023-02-02T23:21:38.545Z,3.60
2023-02-02T23:24:08.619Z,3.28
2023-02-02T23:26:38.206Z,3.38
2023-02-02T23:29:10.357Z,3.58
2023-02-02T23:31:39.939Z,3.70
2023-02-02T23:34:09.460Z,3.65
2023-02-02T23:36:39.309Z,3.63
2023-02-02T23:39:09.084Z,3.60
2023-02-02T23:41:38.583Z,3.40
2023-02-02T23:44:10.730Z,4.10
2023-02-02T23:46:40.951Z,3.60
2023-02-02T23:49:10.588Z,4.13
2023-02-02T23:51:40.087Z,3.65
2023-02-02T23:54:09.907Z,3.55
2023-02-02T23:56:39.723Z,3.33
2023-02-02T23:59:11.948Z,3.53
